Time;durP1;ratioP1;P1;durP2;ratioP2;P2;SDS_P1;SDS_P2;PMS_P1;PMS_P2;Temp;Humidity;BMP_temperature;BMP_pressure;BME280_temperature;BME280_humidity;BME280_pressure;Samples;Min_cycle;Max_cycle;Signal;HPM_P1;HPM_P2
2021/01/20 00:02:22;;;;;;;21.55;12.88;;;8.40;99.90;;;;;;5077468;28;20029;-89
2021/01/20 00:04:50;;;;;;;22.65;11.68;;;8.30;99.90;;;;;;5077168;28;20042;-89
2021/01/20 00:07:16;;;;;;;22.27;11.52;;;8.30;99.90;;;;;;5078007;28;20036;-90
2021/01/20 00:09:42;;;;;;;21.77;12.20;;;8.30;99.90;;;;;;5075059;28;20036;-90
2021/01/20 00:12:12;;;;;;;24.88;12.05;;;8.30;99.90;;;;;;5079536;28;20560;-90
2021/01/20 00:14:39;;;;;;;23.67;11.27;;;8.30;99.90;;;;;;5081323;28;20057;-91
2021/01/20 00:17:05;;;;;;;24.15;11.10;;;8.30;99.90;;;;;;5082801;28;20029;-91
2021/01/20 00:19:35;;;;;;;24.27;12.95;;;8.30;99.90;;;;;;5077838;28;20032;-89
2021/01/20 00:22:04;;;;;;;21.10;12.48;;;8.20;99.90;;;;;;5061693;28;20043;-90
2021/01/20 00:24:32;;;;;;;21.80;11.25;;;8.30;99.90;;;;;;5081476;28;20067;-90
2021/01/20 00:26:58;;;;;;;23.50;12.63;;;8.30;99.90;;;;;;5078369;28;20077;-92
2021/01/20 00:29:24;;;;;;;19.85;12.48;;;8.30;99.90;;;;;;5073329;28;20383;-90
2021/01/20 00:31:58;;;;;;;19.45;11.82;;;8.30;99.90;;;;;;5073384;28;20112;-89
2021/01/20 00:34:25;;;;;;;31.45;13.50;;;8.30;99.90;;;;;;5073570;28;20389;-90
2021/01/20 00:36:56;;;;;;;21.73;11.43;;;8.30;99.90;;;;;;5056324;28;20070;-88
2021/01/20 00:39:21;;;;;;;27.67;12.35;;;8.30;99.90;;;;;;5072995;28;20029;-89
2021/01/20 00:41:47;;;;;;;19.17;12.38;;;8.30;99.90;;;;;;5078410;28;20044;-89
2021/01/20 00:44:13;;;;;;;21.50;12.48;;;8.30;99.90;;;;;;5078108;28;20122;-90
2021/01/20 00:46:40;;;;;;;28.50;12.57;;;8.30;99.90;;;;;;5080280;28;20087;-90
2021/01/20 00:49:06;;;;;;;19.02;12.02;;;8.30;99.90;;;;;;5079859;28;20027;-89
2021/01/20 00:51:38;;;;;;;24.10;12.80;;;8.30;99.90;;;;;;5079939;28;20028;-90
2021/01/20 00:54:04;;;;;;;26.85;13.63;;;8.30;99.90;;;;;;5080073;28;20473;-90
2021/01/20 00:56:30;;;;;;;29.35;12.63;;;8.30;99.90;;;;;;5063143;28;20054;-89
2021/01/20 00:58:55;;;;;;;17.50;12.20;;;8.30;99.90;;;;;;5080095;28;20028;-89
2021/01/20 01:01:22;;;;;;;23.13;13.82;;;8.30;99.90;;;;;;5079417;28;20485;-89
2021/01/20 01:03:48;;;;;;;22.02;12.85;;;8.20;99.90;;;;;;5080350;28;20123;-87
2021/01/20 01:06:15;;;;;;;23.27;13.90;;;8.20;99.90;;;;;;5079434;28;20059;-88
2021/01/20 01:08:40;;;;;;;28.45;13.48;;;8.20;99.90;;;;;;5078940;28;20024;-90
2021/01/20 01:11:08;;;;;;;22.83;12.82;;;8.20;99.90;;;;;;5079516;28;20404;-90
2021/01/20 01:13:33;;;;;;;22.10;13.93;;;8.30;99.90;;;;;;5097479;28;20028;-88
2021/01/20 01:15:59;;;;;;;24.65;13.40;;;8.30;99.90;;;;;;5079369;28;20024;-89
2021/01/20 01:18:28;;;;;;;29.15;13.18;;;8.30;99.90;;;;;;5079354;28;20039;-88
2021/01/20 01:20:53;;;;;;;20.90;13.25;;;8.30;99.90;;;;;;5079024;28;20026;-89
2021/01/20 01:23:20;;;;;;;25.33;14.40;;;8.30;99.90;;;;;;5062818;28;20024;-89
2021/01/20 01:25:45;;;;;;;20.88;13.55;;;8.30;99.90;;;;;;5062540;28;20131;-88
2021/01/20 01:28:14;;;;;;;27.55;14.35;;;8.30;99.90;;;;;;5063122;28;20480;-90
2021/01/20 01:30:43;;;;;;;25.63;13.52;;;8.20;99.90;;;;;;5079918;28;20032;-89
2021/01/20 01:33:09;;;;;;;22.70;13.73;;;8.30;99.90;;;;;;5079664;28;20024;-89
2021/01/20 01:35:35;;;;;;;27.08;15.02;;;8.20;99.90;;;;;;5079957;28;20363;-89
2021/01/20 01:38:01;;;;;;;26.65;14.48;;;8.20;99.90;;;;;;5063264;28;20024;-89
2021/01/20 01:40:28;;;;;;;21.75;13.20;;;8.30;99.90;;;;;;5079151;28;20020;-89
2021/01/20 01:42:56;;;;;;;22.88;14.73;;;8.30;99.90;;;;;;5078962;28;20093;-90
2021/01/20 01:45:22;;;;;;;26.35;14.30;;;8.20;99.90;;;;;;5078680;28;20028;-89
2021/01/20 01:47:48;;;;;;;22.27;14.82;;;8.30;99.90;;;;;;5079077;28;20373;-88
2021/01/20 01:50:14;;;;;;;24.95;15.88;;;8.20;99.90;;;;;;5096943;28;20458;-88
2021/01/20 01:52:42;;;;;;;25.63;15.00;;;8.20;99.90;;;;;;5062185;28;20032;-88
2021/01/20 01:55:09;;;;;;;22.20;15.23;;;8.30;99.90;;;;;;5078937;28;20046;-88
2021/01/20 01:57:45;;;;;;;24.85;16.40;;;8.20;99.90;;;;;;5083059;28;20047;-89
2021/01/20 02:00:11;;;;;;;24.52;15.18;;;8.20;99.90;;;;;;5049230;28;20397;-88
2021/01/20 02:02:37;;;;;;;25.38;16.17;;;8.20;99.90;;;;;;5062960;28;20064;-89
2021/01/20 02:05:04;;;;;;;31.58;16.90;;;8.20;99.90;;;;;;5063204;28;20032;-89
2021/01/20 02:07:31;;;;;;;27.65;16.13;;;8.10;99.90;;;;;;5080646;28;20044;-89
2021/01/20 02:09:59;;;;;;;24.13;15.63;;;8.20;99.90;;;;;;5078456;28;20028;-88
2021/01/20 02:12:43;;;;;;;22.48;15.90;;;8.20;99.90;;;;;;5077859;28;20032;-89
2021/01/20 02:15:36;;;;;;;22.02;14.73;;;8.20;99.90;;;;;;5077770;28;20024;-89
2021/01/20 02:18:14;;;;;;;25.80;16.55;;;8.20;99.90;;;;;;5078464;28;20024;-88
2021/01/20 02:21:17;;;;;;;22.50;16.08;;;8.20;99.90;;;;;;5077765;28;20073;-89
2021/01/20 02:23:43;;;;;;;22.42;16.00;;;8.20;99.90;;;;;;5077341;28;20056;-89
2021/01/20 02:26:30;;;;;;;28.88;17.17;;;8.20;99.90;;;;;;5060711;28;20032;-89
2021/01/20 02:29:09;;;;;;;22.77;15.68;;;8.20;99.90;;;;;;5077661;28;20024;-89
2021/01/20 02:31:35;;;;;;;23.30;16.15;;;8.30;99.90;;;;;;5079153;28;20036;-89
2021/01/20 02:34:09;;;;;;;25.33;17.02;;;8.30;99.90;;;;;;5070554;28;20123;-90
2021/01/20 02:36:36;;;;;;;29.52;16.67;;;8.30;99.90;;;;;;5067291;28;20119;-90
2021/01/20 02:39:02;;;;;;;28.15;17.75;;;8.30;99.90;;;;;;5062983;28;20056;-90
2021/01/20 02:41:29;;;;;;;26.05;17.25;;;8.30;99.90;;;;;;5077867;28;20074;-89
2021/01/20 02:44:03;;;;;;;25.98;16.65;;;8.40;99.90;;;;;;5060655;28;20123;-89
2021/01/20 02:46:30;;;;;;;26.17;16.63;;;8.40;99.90;;;;;;5077457;28;20093;-90
2021/01/20 02:48:56;;;;;;;28.67;15.65;;;8.40;99.90;;;;;;5077122;28;20279;-89
2021/01/20 02:51:40;;;;;;;25.52;16.05;;;8.40;99.90;;;;;;5077136;28;20083;-89
2021/01/20 02:54:07;;;;;;;25.50;15.88;;;8.40;99.90;;;;;;5077861;28;20031;-89
2021/01/20 02:56:34;;;;;;;22.38;17.08;;;8.40;99.90;;;;;;5061702;28;20385;-89
2021/01/20 02:59:03;;;;;;;23.05;15.18;;;8.40;99.90;;;;;;5078323;28;20036;-88
2021/01/20 03:01:32;;;;;;;21.27;15.55;;;8.50;99.90;;;;;;5094873;28;20067;-88
2021/01/20 03:04:00;;;;;;;23.25;16.15;;;8.50;99.90;;;;;;5076994;28;20059;-89
2021/01/20 03:06:28;;;;;;;26.67;16.85;;;8.60;99.90;;;;;;5075834;28;20027;-89
2021/01/20 03:08:54;;;;;;;24.23;16.23;;;8.50;99.90;;;;;;5076655;28;20039;-89
2021/01/20 03:11:20;;;;;;;27.95;16.90;;;8.50;99.90;;;;;;5076521;28;20035;-88
2021/01/20 03:13:47;;;;;;;28.08;16.40;;;8.60;99.90;;;;;;5043236;28;20025;-88
2021/01/20 03:16:13;;;;;;;22.75;16.52;;;8.60;99.90;;;;;;5043209;28;20028;-89
2021/01/20 03:18:39;;;;;;;25.63;16.35;;;8.60;99.90;;;;;;5076472;28;20031;-88
2021/01/20 03:21:05;;;;;;;23.98;15.93;;;8.50;99.90;;;;;;5043348;28;20414;-88
2021/01/20 03:23:31;;;;;;;25.85;16.80;;;8.60;99.90;;;;;;5076368;28;20035;-89
2021/01/20 03:25:57;;;;;;;28.35;16.33;;;8.60;99.90;;;;;;5076226;28;20028;-88
2021/01/20 03:28:23;;;;;;;26.45;16.60;;;8.50;99.90;;;;;;5059565;28;20469;-89
2021/01/20 03:30:50;;;;;;;26.45;17.52;;;8.50;99.90;;;;;;5076084;28;20067;-89
2021/01/20 03:33:16;;;;;;;26.58;16.60;;;8.60;99.90;;;;;;5043201;28;20034;-88
2021/01/20 03:35:41;;;;;;;27.00;17.63;;;8.60;99.90;;;;;;5059354;28;20119;-88
2021/01/20 03:38:08;;;;;;;30.00;19.65;;;8.60;99.90;;;;;;5043082;28;20054;-90
2021/01/20 03:40:34;;;;;;;23.63;16.48;;;8.60;99.90;;;;;;5075850;28;20099;-88
2021/01/20 03:43:00;;;;;;;23.20;16.23;;;8.70;99.90;;;;;;5058675;28;20105;-88
2021/01/20 03:45:26;;;;;;;27.10;16.98;;;8.70;99.90;;;;;;5075785;28;20032;-88
2021/01/20 03:47:51;;;;;;;22.40;15.88;;;8.70;99.90;;;;;;5075794;28;20024;-88
2021/01/20 03:50:17;;;;;;;20.63;14.65;;;8.70;99.90;;;;;;5059074;28;20068;-89
2021/01/20 03:52:43;;;;;;;22.85;16.50;;;8.70;99.90;;;;;;5042470;28;20031;-88
2021/01/20 03:55:09;;;;;;;24.00;16.10;;;8.70;99.90;;;;;;5076254;28;20024;-88
2021/01/20 03:57:34;;;;;;;26.83;16.33;;;8.70;99.90;;;;;;5060349;28;20032;-89
2021/01/20 04:00:00;;;;;;;25.23;16.42;;;8.70;99.90;;;;;;5060526;28;20032;-89
2021/01/20 04:02:26;;;;;;;22.77;15.68;;;8.70;99.90;;;;;;5077554;28;20039;-88
2021/01/20 04:04:51;;;;;;;21.45;15.52;;;8.70;99.90;;;;;;5059141;28;20024;-89
2021/01/20 04:07:17;;;;;;;30.35;14.50;;;8.80;99.90;;;;;;5058764;28;20466;-88
2021/01/20 04:09:46;;;;;;;22.25;14.80;;;8.80;99.90;;;;;;5075599;28;20036;-88
2021/01/20 04:12:12;;;;;;;25.40;15.25;;;8.80;99.90;;;;;;5042812;28;20040;-89
2021/01/20 04:14:37;;;;;;;25.65;15.55;;;8.80;99.90;;;;;;5059327;28;20035;-88
2021/01/20 04:17:03;;;;;;;23.38;13.90;;;8.80;99.90;;;;;;5075804;28;20032;-88
2021/01/20 04:19:29;;;;;;;24.60;16.00;;;8.80;99.90;;;;;;5096854;28;20032;-89
2021/01/20 04:21:54;;;;;;;19.30;15.20;;;8.80;99.90;;;;;;5097981;28;20028;-89
2021/01/20 04:24:20;;;;;;;20.30;14.38;;;8.80;99.90;;;;;;5062873;28;20048;-88
2021/01/20 04:26:46;;;;;;;22.92;14.85;;;8.80;99.90;;;;;;5079395;28;20534;-88
2021/01/20 04:29:12;;;;;;;22.27;13.68;;;8.80;99.90;;;;;;5097460;28;20115;-87
2021/01/20 04:31:41;;;;;;;22.30;13.38;;;8.80;99.90;;;;;;5062703;28;20409;-85
2021/01/20 04:34:06;;;;;;;20.38;13.68;;;8.80;99.90;;;;;;5079770;28;20024;-86
2021/01/20 04:36:32;;;;;;;20.15;12.80;;;8.80;99.90;;;;;;5097766;28;20492;-86
2021/01/20 04:38:59;;;;;;;20.35;14.15;;;8.80;99.90;;;;;;5062750;28;20043;-87
2021/01/20 04:41:27;;;;;;;17.45;12.30;;;8.80;99.90;;;;;;5079601;28;20028;-88
2021/01/20 04:43:54;;;;;;;20.67;12.68;;;8.80;99.90;;;;;;5079178;28;20052;-88
2021/01/20 04:46:19;;;;;;;18.95;14.30;;;8.80;99.90;;;;;;5064593;28;20036;-87
2021/01/20 04:48:49;;;;;;;23.25;14.25;;;8.80;99.90;;;;;;5102991;28;20047;-88
2021/01/20 04:51:19;;;;;;;20.80;13.82;;;8.90;99.90;;;;;;5103619;28;20030;-87
2021/01/20 04:53:46;;;;;;;22.45;13.70;;;8.80;99.90;;;;;;5118093;27;20030;-88
2021/01/20 04:56:13;;;;;;;23.65;13.63;;;8.90;99.90;;;;;;5080609;28;20051;-88
2021/01/20 04:58:39;;;;;;;20.75;14.07;;;8.80;99.90;;;;;;5063567;28;20036;-90
2021/01/20 05:01:05;;;;;;;24.23;14.02;;;8.70;99.90;;;;;;5063591;28;20477;-88
2021/01/20 05:03:31;;;;;;;22.25;14.00;;;8.70;99.90;;;;;;5080258;28;20093;-88
2021/01/20 05:05:57;;;;;;;20.05;14.02;;;8.70;99.90;;;;;;5062700;28;20056;-88
2021/01/20 05:08:23;;;;;;;18.63;13.88;;;8.60;99.90;;;;;;5080134;28;20039;-88
2021/01/20 05:10:52;;;;;;;19.30;13.45;;;8.60;99.90;;;;;;5079062;28;20120;-89
2021/01/20 05:13:26;;;;;;;20.20;13.88;;;8.70;99.90;;;;;;5079881;28;20389;-89
2021/01/20 05:15:52;;;;;;;22.05;13.93;;;8.70;99.90;;;;;;5079815;28;20024;-88
2021/01/20 05:18:19;;;;;;;23.92;14.00;;;8.60;99.90;;;;;;5081162;28;20088;-88
2021/01/20 05:20:44;;;;;;;19.02;13.40;;;8.60;99.90;;;;;;5082679;28;20028;-89
2021/01/20 05:23:10;;;;;;;19.02;13.63;;;8.70;99.90;;;;;;5067758;28;20166;-89
2021/01/20 05:25:44;;;;;;;23.30;13.75;;;8.60;99.90;;;;;;5092635;28;20104;-89
2021/01/20 05:28:26;;;;;;;23.05;13.25;;;8.70;99.90;;;;;;5088661;28;20120;-88
2021/01/20 05:30:57;;;;;;;20.05;13.25;;;8.60;99.90;;;;;;5057659;28;20089;-87
2021/01/20 05:33:37;;;;;;;20.48;13.05;;;8.60;99.90;;;;;;5088054;28;20032;-88
2021/01/20 05:36:11;;;;;;;19.77;12.30;;;8.60;99.90;;;;;;5106438;28;20024;-89
2021/01/20 05:38:46;;;;;;;20.67;13.00;;;8.60;99.90;;;;;;5074237;28;20436;-90
2021/01/20 05:41:24;;;;;;;20.45;14.18;;;8.60;99.90;;;;;;5106764;28;20027;-89
2021/01/20 05:44:15;;;;;;;20.23;13.45;;;8.70;99.90;;;;;;5088086;28;20051;-90
2021/01/20 05:46:42;;;;;;;21.95;13.73;;;8.60;99.90;;;;;;5094986;27;20027;-88
2021/01/20 05:49:24;;;;;;;21.27;13.50;;;8.70;99.90;;;;;;5120483;27;20020;-89
2021/01/20 05:51:51;;;;;;;20.65;13.23;;;8.60;99.90;;;;;;5101097;28;20036;-90
2021/01/20 05:54:35;;;;;;;23.38;13.43;;;8.60;99.90;;;;;;5090023;28;20032;-88
2021/01/20 05:57:21;;;;;;;17.73;13.13;;;8.60;99.90;;;;;;5089940;28;20108;-88
2021/01/20 05:59:50;;;;;;;19.73;13.15;;;8.60;99.90;;;;;;5083468;28;20066;-89
2021/01/20 06:02:18;;;;;;;17.55;12.23;;;8.60;99.90;;;;;;5080638;28;20036;-86
2021/01/20 06:04:44;;;;;;;19.98;12.80;;;8.60;99.90;;;;;;5092993;28;20118;-89
2021/01/20 06:07:12;;;;;;;18.95;12.48;;;8.70;99.90;;;;;;5085543;27;20088;-89
2021/01/20 06:09:39;;;;;;;21.13;12.13;;;8.60;99.90;;;;;;5102101;28;20079;-88
2021/01/20 06:12:09;;;;;;;15.25;11.43;;;8.70;99.90;;;;;;5099424;28;20031;-90
2021/01/20 06:14:35;;;;;;;17.42;11.93;;;8.70;99.90;;;;;;5119714;27;20020;-88
2021/01/20 06:17:03;;;;;;;17.17;11.65;;;8.70;99.90;;;;;;5085270;28;20016;-87
2021/01/20 06:19:30;;;;;;;15.95;11.48;;;8.80;99.90;;;;;;5101739;28;20125;-89
2021/01/20 06:21:59;;;;;;;18.55;11.75;;;8.80;99.90;;;;;;5098183;28;20107;-89
2021/01/20 06:24:42;;;;;;;18.80;11.05;;;8.80;99.90;;;;;;5096672;27;20035;-89
2021/01/20 06:27:12;;;;;;;16.63;11.75;;;8.80;99.90;;;;;;5114577;28;20024;-88
2021/01/20 06:29:44;;;;;;;17.80;11.90;;;8.80;99.90;;;;;;5104095;28;20059;-88
2021/01/20 06:32:17;;;;;;;15.52;11.30;;;8.80;99.90;;;;;;5082465;28;20039;-88
2021/01/20 06:34:55;;;;;;;16.70;11.13;;;8.80;99.90;;;;;;5101577;28;20032;-88
2021/01/20 06:37:38;;;;;;;17.48;11.88;;;8.80;99.90;;;;;;5097825;28;20036;-88
2021/01/20 06:40:24;;;;;;;17.52;11.35;;;8.80;99.90;;;;;;5077838;28;20123;-88
2021/01/20 06:42:50;;;;;;;23.33;11.63;;;8.80;99.90;;;;;;5076582;28;20044;-88
2021/01/20 06:45:23;;;;;;;15.60;11.77;;;8.80;99.90;;;;;;5077651;28;20031;-89
2021/01/20 06:47:58;;;;;;;19.52;12.10;;;8.80;99.90;;;;;;5078156;28;20020;-88
2021/01/20 06:50:25;;;;;;;;;;;8.80;99.90;;;;;;5077904;28;20423;-88
2021/01/20 06:53:08;;;;;;;16.27;10.63;;;8.80;99.90;;;;;;5077438;28;19908;-88
2021/01/20 06:55:38;;;;;;;19.25;11.95;;;8.80;99.90;;;;;;5077347;28;20026;-88
2021/01/20 06:58:25;;;;;;;15.68;10.88;;;8.80;99.90;;;;;;5077484;28;20200;-88
2021/01/20 07:01:00;;;;;;;17.05;11.43;;;8.80;99.90;;;;;;5078331;28;20056;-88
2021/01/20 07:03:46;;;;;;;17.02;11.65;;;8.80;99.90;;;;;;5077584;28;20438;-88
2021/01/20 07:06:34;;;;;;;17.15;10.48;;;8.80;99.90;;;;;;5077370;28;20081;-88
2021/01/20 07:09:04;;;;;;;14.60;10.27;;;8.80;99.90;;;;;;5095041;28;20031;-89
2021/01/20 07:11:30;;;;;;;18.05;10.43;;;8.80;99.90;;;;;;5078424;28;20478;-89
2021/01/20 07:13:56;;;;;;;15.05;9.98;;;8.80;99.90;;;;;;5077342;28;20115;-89
2021/01/20 07:16:22;;;;;;;18.00;11.18;;;8.80;99.90;;;;;;5076904;28;20047;-88
2021/01/20 07:18:52;;;;;;;16.98;11.15;;;8.80;99.90;;;;;;5060057;28;20040;-87
2021/01/20 07:21:19;;;;;;;16.98;11.35;;;8.80;99.90;;;;;;5077003;28;20028;-87
2021/01/20 07:23:45;;;;;;;16.83;10.30;;;8.80;99.90;;;;;;5094761;28;20489;-88
2021/01/20 07:26:13;;;;;;;20.60;10.55;;;8.80;99.90;;;;;;5076018;28;20024;-87
2021/01/20 07:28:39;;;;;;;15.25;9.93;;;8.80;99.90;;;;;;5094498;28;20032;-88
2021/01/20 07:31:13;;;;;;;14.85;10.50;;;8.80;99.90;;;;;;5077157;28;20035;-87
2021/01/20 07:33:40;;;;;;;18.10;10.27;;;8.80;99.90;;;;;;5077318;28;20081;-87
2021/01/20 07:36:16;;;;;;;13.70;10.75;;;8.80;99.90;;;;;;5096233;28;20028;-87
2021/01/20 07:38:45;;;;;;;14.82;9.60;;;8.80;99.90;;;;;;5080508;28;20032;-88
2021/01/20 07:41:22;;;;;;;13.20;9.98;;;8.80;99.90;;;;;;5067995;28;20024;-85
2021/01/20 07:44:08;;;;;;;13.63;9.13;;;8.80;99.90;;;;;;5086724;28;20052;-88
2021/01/20 07:46:34;;;;;;;15.50;9.85;;;8.90;99.90;;;;;;5081050;28;20075;-87
2021/01/20 07:49:13;;;;;;;18.48;10.25;;;8.90;99.90;;;;;;5057999;28;20028;-89
2021/01/20 07:51:40;;;;;;;14.38;9.82;;;8.90;99.90;;;;;;5073598;28;20055;-88
2021/01/20 07:54:06;;;;;;;15.57;10.15;;;8.90;99.90;;;;;;5073022;28;20037;-89
2021/01/20 07:56:34;;;;;;;12.05;8.80;;;8.90;99.90;;;;;;5056563;28;20029;-87
2021/01/20 07:59:17;;;;;;;17.13;10.05;;;8.90;99.90;;;;;;5072582;28;20029;-88
2021/01/20 08:01:43;;;;;;;11.70;8.85;;;8.90;99.90;;;;;;5073400;28;20478;-87
2021/01/20 08:04:23;;;;;;;13.13;9.00;;;8.90;99.90;;;;;;5074069;28;20025;-85
2021/01/20 08:06:50;;;;;;;13.63;9.07;;;8.90;99.90;;;;;;5075237;28;20029;-88
2021/01/20 08:09:17;;;;;;;14.75;9.63;;;8.90;99.90;;;;;;5071849;28;20028;-88
2021/01/20 08:11:45;;;;;;;14.55;9.10;;;8.90;99.90;;;;;;5056436;28;20062;-89
2021/01/20 08:14:13;;;;;;;17.73;9.75;;;8.90;99.90;;;;;;5072179;28;20057;-90
2021/01/20 08:16:39;;;;;;;12.90;8.70;;;9.00;99.90;;;;;;5071897;28;20036;-88
2021/01/20 08:19:06;;;;;;;12.95;8.80;;;9.00;99.90;;;;;;5072707;28;20036;-88
2021/01/20 08:21:32;;;;;;;10.70;8.38;;;9.00;99.90;;;;;;5072135;28;20029;-88
2021/01/20 08:24:01;;;;;;;11.55;8.52;;;9.00;99.90;;;;;;5072649;28;20033;-89
2021/01/20 08:26:30;;;;;;;10.50;8.32;;;9.10;99.90;;;;;;5073792;28;20028;-89
2021/01/20 08:29:05;;;;;;;13.02;7.18;;;9.10;99.90;;;;;;5071867;28;20025;-88
2021/01/20 08:31:30;;;;;;;11.55;7.43;;;9.10;99.90;;;;;;5073975;28;20123;-87
2021/01/20 08:34:16;;;;;;;13.10;7.80;;;9.10;99.90;;;;;;5074091;28;20056;-88
2021/01/20 08:37:04;;;;;;;9.57;6.80;;;9.10;99.90;;;;;;5073998;28;20422;-89
2021/01/20 08:39:31;;;;;;;16.20;7.55;;;9.00;99.90;;;;;;5072173;28;20535;-88
2021/01/20 08:42:22;;;;;;;11.77;6.63;;;9.00;99.90;;;;;;5073467;28;20137;-88
2021/01/20 08:45:05;;;;;;;11.65;6.90;;;9.00;99.90;;;;;;5077500;28;20040;-88
2021/01/20 08:47:35;;;;;;;9.18;6.80;;;9.10;99.90;;;;;;5077619;28;20039;-87
2021/01/20 08:50:02;;;;;;;9.77;7.03;;;9.10;99.90;;;;;;5078388;28;20553;-88
2021/01/20 08:52:50;;;;;;;14.25;7.22;;;9.10;99.90;;;;;;5059224;28;20177;-88
2021/01/20 08:55:32;;;;;;;9.65;6.78;;;9.20;99.90;;;;;;5094167;28;20028;-88
2021/01/20 08:58:18;;;;;;;7.43;5.78;;;9.10;99.90;;;;;;5075596;28;20028;-90
2021/01/20 09:00:46;;;;;;;12.52;6.22;;;9.10;99.90;;;;;;5074650;28;20482;-88
2021/01/20 09:03:16;;;;;;;11.50;6.28;;;9.10;99.90;;;;;;5093390;28;20107;-89
2021/01/20 09:05:42;;;;;;;7.53;6.03;;;9.10;99.90;;;;;;5061087;28;20058;-89
2021/01/20 09:08:08;;;;;;;9.90;6.35;;;9.20;99.90;;;;;;5097153;28;20032;-88
2021/01/20 09:10:34;;;;;;;9.02;6.22;;;9.20;99.90;;;;;;5062664;28;20040;-88
2021/01/20 09:13:00;;;;;;;10.48;6.22;;;9.20;99.90;;;;;;5078594;28;20123;-88
2021/01/20 09:15:26;;;;;;;8.88;5.97;;;9.20;99.90;;;;;;5078982;28;20060;-88
2021/01/20 09:17:52;;;;;;;7.72;5.22;;;9.20;99.90;;;;;;5062306;28;20381;-88
2021/01/20 09:20:19;;;;;;;8.20;5.20;;;9.20;99.90;;;;;;5062221;28;20032;-88
2021/01/20 09:22:44;;;;;;;10.30;6.38;;;9.20;99.90;;;;;;5046079;28;20077;-88
2021/01/20 09:25:11;;;;;;;6.05;4.97;;;9.20;99.90;;;;;;5080581;28;20028;-87
2021/01/20 09:27:36;;;;;;;7.40;4.57;;;9.20;99.90;;;;;;5080260;28;20063;-89
2021/01/20 09:30:03;;;;;;;10.52;5.40;;;9.20;99.90;;;;;;5083375;28;20028;-86
2021/01/20 09:32:34;;;;;;;7.78;5.00;;;9.20;99.90;;;;;;5062920;28;20032;-87
2021/01/20 09:34:59;;;;;;;9.18;5.28;;;9.20;99.90;;;;;;5063945;28;20198;-88
2021/01/20 09:37:26;;;;;;;11.25;6.22;;;9.20;99.90;;;;;;5045881;28;20056;-87
2021/01/20 09:39:52;;;;;;;12.27;6.00;;;9.10;99.90;;;;;;5078496;28;20032;-87
2021/01/20 09:42:17;;;;;;;8.00;5.32;;;9.10;99.90;;;;;;5078931;28;20094;-87
2021/01/20 09:44:45;;;;;;;7.72;5.22;;;9.10;99.90;;;;;;5078703;28;20032;-87
2021/01/20 09:47:11;;;;;;;10.18;5.65;;;9.20;99.90;;;;;;5078785;28;20024;-87
2021/01/20 09:49:36;;;;;;;8.27;5.10;;;9.10;99.90;;;;;;5077994;28;20036;-86
2021/01/20 09:52:03;;;;;;;12.82;6.28;;;9.10;99.90;;;;;;5061512;28;20079;-87
2021/01/20 09:54:29;;;;;;;9.82;4.88;;;9.20;99.90;;;;;;5061452;28;20058;-87
2021/01/20 09:56:54;;;;;;;9.18;4.82;;;9.20;99.90;;;;;;5078855;28;20083;-87
2021/01/20 09:59:20;;;;;;;8.82;5.47;;;9.20;99.90;;;;;;5063461;28;20043;-88
2021/01/20 10:01:46;;;;;;;9.52;5.60;;;9.20;99.90;;;;;;5078778;28;20038;-87
2021/01/20 10:04:11;;;;;;;7.60;4.70;;;9.20;99.90;;;;;;5061757;28;20119;-87
2021/01/20 10:06:37;;;;;;;9.63;5.07;;;9.20;99.90;;;;;;5081785;28;20373;-88
2021/01/20 10:09:03;;;;;;;7.25;4.80;;;9.10;99.90;;;;;;5083500;28;20024;-86
2021/01/20 10:11:28;;;;;;;8.68;5.35;;;9.20;99.90;;;;;;5093934;28;20036;-87
2021/01/20 10:13:54;;;;;;;9.00;4.78;;;9.10;99.90;;;;;;5055860;28;20032;-87
2021/01/20 10:16:19;;;;;;;7.20;4.72;;;9.10;99.90;;;;;;5055210;28;20028;-89
2021/01/20 10:18:47;;;;;;;8.77;4.93;;;9.20;99.90;;;;;;5098472;28;20050;-88
2021/01/20 10:21:12;;;;;;;13.23;5.18;;;9.20;99.90;;;;;;5079626;28;20032;-88
2021/01/20 10:23:38;;;;;;;8.13;4.65;;;9.20;99.90;;;;;;5060571;28;20032;-87
2021/01/20 10:26:04;;;;;;;7.47;4.72;;;9.20;99.90;;;;;;5044129;28;20040;-88
2021/01/20 10:28:29;;;;;;;8.40;4.90;;;9.20;99.90;;;;;;5077639;28;20028;-88
2021/01/20 10:30:55;;;;;;;12.50;5.45;;;9.20;99.90;;;;;;5044504;28;20035;-88
2021/01/20 10:33:20;;;;;;;10.57;4.63;;;9.20;99.90;;;;;;5044351;28;20136;-88
2021/01/20 10:35:46;;;;;;;8.38;4.80;;;9.20;99.90;;;;;;5062009;28;20024;-87
2021/01/20 10:38:12;;;;;;;12.25;4.93;;;9.20;99.90;;;;;;5063153;28;20028;-87
2021/01/20 10:40:37;;;;;;;7.07;4.50;;;9.20;99.90;;;;;;5045926;28;20032;-87
2021/01/20 10:43:03;;;;;;;8.50;4.75;;;9.20;99.90;;;;;;5062338;28;20417;-87
2021/01/20 10:45:31;;;;;;;8.15;4.20;;;9.20;99.90;;;;;;5076886;28;20032;-90
2021/01/20 10:47:57;;;;;;;6.88;4.47;;;9.20;99.90;;;;;;5077512;28;20065;-87
2021/01/20 10:50:23;;;;;;;10.77;4.60;;;9.20;99.90;;;;;;5076822;28;20124;-88
2021/01/20 10:52:48;;;;;;;9.07;4.13;;;9.20;99.90;;;;;;5076307;28;20048;-87
2021/01/20 10:55:14;;;;;;;6.45;4.63;;;9.20;99.90;;;;;;5059951;28;20060;-87
2021/01/20 10:57:40;;;;;;;7.70;4.38;;;9.30;99.90;;;;;;5043641;28;20077;-87
2021/01/20 11:00:06;;;;;;;8.02;4.53;;;9.40;99.90;;;;;;5043802;28;20028;-86
2021/01/20 11:02:31;;;;;;;5.32;3.60;;;9.40;99.90;;;;;;5043632;28;20062;-87
2021/01/20 11:04:57;;;;;;;9.20;4.75;;;9.40;99.90;;;;;;5059889;28;20033;-87
2021/01/20 11:07:23;;;;;;;6.78;4.25;;;9.50;99.90;;;;;;5043517;28;20371;-87
2021/01/20 11:09:51;;;;;;;5.38;4.15;;;9.50;99.90;;;;;;5060513;28;20412;-88
2021/01/20 11:12:20;;;;;;;7.95;3.97;;;9.60;99.90;;;;;;5077959;28;20052;-88
2021/01/20 11:14:45;;;;;;;6.68;4.07;;;9.60;99.90;;;;;;5077339;28;20588;-88
2021/01/20 11:17:11;;;;;;;6.03;4.00;;;9.60;99.90;;;;;;5044045;28;20095;-88
2021/01/20 11:19:37;;;;;;;4.60;3.47;;;9.60;99.90;;;;;;5043156;28;20032;-88
2021/01/20 11:22:02;;;;;;;5.80;3.53;;;9.60;99.90;;;;;;5076420;28;20110;-88
2021/01/20 11:24:28;;;;;;;9.57;3.70;;;9.60;99.90;;;;;;5059057;28;20024;-87
2021/01/20 11:26:53;;;;;;;6.55;3.42;;;9.50;99.90;;;;;;5076359;28;20036;-87
2021/01/20 11:29:19;;;;;;;7.93;3.60;;;9.50;99.90;;;;;;5094273;28;20036;-87
2021/01/20 11:31:46;;;;;;;6.78;4.10;;;9.50;99.90;;;;;;5076320;28;20477;-87
2021/01/20 11:34:11;;;;;;;8.45;4.00;;;9.50;99.90;;;;;;5094874;28;20052;-88
2021/01/20 11:36:37;;;;;;;7.50;4.05;;;9.60;99.90;;;;;;5059618;28;20452;-88
2021/01/20 11:39:03;;;;;;;7.40;4.10;;;9.50;99.90;;;;;;5059194;28;20028;-87
2021/01/20 11:41:28;;;;;;;8.65;4.30;;;9.50;99.90;;;;;;5093792;28;20076;-89
2021/01/20 11:43:54;;;;;;;9.80;4.63;;;9.50;99.90;;;;;;5054827;28;20498;-89
2021/01/20 11:46:20;;;;;;;11.43;4.53;;;9.50;99.90;;;;;;5055070;28;20443;-88
2021/01/20 11:48:48;;;;;;;6.45;3.75;;;9.50;99.90;;;;;;5042802;28;20036;-86
2021/01/20 11:51:14;;;;;;;8.32;3.97;;;9.40;99.90;;;;;;5056101;28;20028;-87
2021/01/20 11:53:39;;;;;;;9.02;4.70;;;9.40;99.90;;;;;;5072169;28;20032;-86
2021/01/20 11:56:05;;;;;;;8.25;4.28;;;9.30;99.90;;;;;;5053972;28;20028;-87
2021/01/20 11:58:31;;;;;;;6.13;4.47;;;9.30;99.90;;;;;;5073341;28;20040;-88
2021/01/20 12:00:56;;;;;;;8.88;4.07;;;9.30;99.90;;;;;;5055800;28;20032;-88
2021/01/20 12:03:23;;;;;;;7.18;4.32;;;9.20;99.90;;;;;;5072056;28;20051;-87
2021/01/20 12:05:53;;;;;;;5.93;3.80;;;9.20;99.90;;;;;;5056241;28;20036;-87
2021/01/20 12:08:19;;;;;;;6.63;3.90;;;9.20;99.90;;;;;;5072294;28;20490;-88
2021/01/20 12:10:45;;;;;;;12.25;4.43;;;9.30;99.90;;;;;;5072268;28;20083;-88
2021/01/20 12:13:11;;;;;;;7.47;4.43;;;9.30;99.90;;;;;;5055956;28;20024;-89
2021/01/20 12:15:37;;;;;;;8.05;4.18;;;9.30;99.90;;;;;;5072256;28;20120;-88
2021/01/20 12:18:05;;;;;;;6.47;4.05;;;9.30;99.90;;;;;;5038856;28;20119;-88
2021/01/20 12:20:31;;;;;;;6.95;3.55;;;9.30;99.90;;;;;;5072113;28;20111;-86
2021/01/20 12:22:56;;;;;;;6.00;3.80;;;9.30;99.90;;;;;;5071713;28;20077;-87
2021/01/20 12:25:22;;;;;;;7.72;3.85;;;9.30;99.90;;;;;;5055504;28;20032;-87
2021/01/20 12:27:48;;;;;;;8.95;4.15;;;9.30;99.90;;;;;;5072128;28;20032;-87
2021/01/20 12:30:14;;;;;;;9.07;4.25;;;9.30;99.90;;;;;;5072137;28;20033;-88
2021/01/20 12:32:40;;;;;;;7.18;4.20;;;9.20;99.90;;;;;;5058071;28;20033;-84
2021/01/20 12:35:06;;;;;;;7.25;4.13;;;9.20;99.90;;;;;;5060889;28;20029;-89
2021/01/20 12:37:32;;;;;;;7.18;4.22;;;9.10;99.90;;;;;;5061876;28;20033;-88
2021/01/20 12:39:57;;;;;;;9.65;3.95;;;9.00;99.90;;;;;;5057991;28;20046;-88
2021/01/20 12:42:23;;;;;;;7.88;4.40;;;9.00;99.90;;;;;;5060086;28;20040;-87
2021/01/20 12:44:48;;;;;;;8.82;4.13;;;8.90;99.90;;;;;;5079406;28;20028;-87
2021/01/20 12:47:14;;;;;;;11.45;4.30;;;8.90;99.90;;;;;;5062626;28;20040;-87
2021/01/20 12:49:40;;;;;;;6.88;4.30;;;8.90;99.90;;;;;;5045837;28;20060;-89
2021/01/20 12:52:05;;;;;;;7.70;4.30;;;9.00;99.90;;;;;;5061463;28;20485;-86